sensor_id;sensor_type;location;lat;lon;timestamp;pressure;altitude;pressure_sealevel;temperature;humidity
20111;BME280;10216;42.658;23.248;2022-07-25T00:00:58;93839.72;;;22.70;77.22
20111;BME280;10216;42.658;23.248;2022-07-25T00:03:24;93843.94;;;22.71;78.75
20111;BME280;10216;42.658;23.248;2022-07-25T00:05:49;93837.69;;;22.72;79.07
20111;BME280;10216;42.658;23.248;2022-07-25T00:08:15;93834.06;;;22.73;78.58
20111;BME280;10216;42.658;23.248;2022-07-25T00:10:40;93827.69;;;22.69;79.02
20111;BME280;10216;42.658;23.248;2022-07-25T00:13:08;93839.41;;;22.67;80.52
20111;BME280;10216;42.658;23.248;2022-07-25T00:15:33;93834.22;;;22.55;80.79
20111;BME280;10216;42.658;23.248;2022-07-25T00:17:58;93840.38;;;22.49;82.89
20111;BME280;10216;42.658;23.248;2022-07-25T00:20:24;93836.53;;;22.51;81.68
20111;BME280;10216;42.658;23.248;2022-07-25T00:22:49;93832.97;;;22.57;78.36
20111;BME280;10216;42.658;23.248;2022-07-25T00:25:15;93826.69;;;22.58;78.42
20111;BME280;10216;42.658;23.248;2022-07-25T00:27:40;93825.09;;;22.57;77.90
20111;BME280;10216;42.658;23.248;2022-07-25T00:30:06;93828.53;;;22.58;80.35
20111;BME280;10216;42.658;23.248;2022-07-25T00:32:31;93825.91;;;22.58;80.50
20111;BME280;10216;42.658;23.248;2022-07-25T00:37:22;93816.38;;;22.52;80.37
20111;BME280;10216;42.658;23.248;2022-07-25T00:39:47;93817.97;;;22.53;80.73
20111;BME280;10216;42.658;23.248;2022-07-25T00:42:13;93811.75;;;22.42;81.32
20111;BME280;10216;42.658;23.248;2022-07-25T00:44:39;93823.00;;;22.43;81.20
20111;BME280;10216;42.658;23.248;2022-07-25T00:47:07;93823.94;;;22.37;81.02
20111;BME280;10216;42.658;23.248;2022-07-25T00:49:33;93818.06;;;22.30;80.45
20111;BME280;10216;42.658;23.248;2022-07-25T00:51:59;93812.72;;;22.25;79.02
20111;BME280;10216;42.658;23.248;2022-07-25T00:54:24;93812.25;;;22.28;79.42
20111;BME280;10216;42.658;23.248;2022-07-25T00:56:50;93815.34;;;22.25;79.12
20111;BME280;10216;42.658;23.248;2022-07-25T00:59:16;93814.44;;;22.19;80.19
20111;BME280;10216;42.658;23.248;2022-07-25T01:01:42;93816.16;;;22.13;81.09
20111;BME280;10216;42.658;23.248;2022-07-25T01:04:09;93809.81;;;22.09;81.07
20111;BME280;10216;42.658;23.248;2022-07-25T01:06:35;93808.44;;;22.07;80.61
20111;BME280;10216;42.658;23.248;2022-07-25T01:09:01;93810.84;;;22.08;79.60
20111;BME280;10216;42.658;23.248;2022-07-25T01:11:26;93808.59;;;22.00;80.42
20111;BME280;10216;42.658;23.248;2022-07-25T01:13:54;93807.13;;;22.04;79.67
20111;BME280;10216;42.658;23.248;2022-07-25T01:16:19;93809.81;;;22.09;79.56
20111;BME280;10216;42.658;23.248;2022-07-25T01:18:44;93809.03;;;21.97;80.18
20111;BME280;10216;42.658;23.248;2022-07-25T01:21:10;93813.03;;;22.00;80.05
20111;BME280;10216;42.658;23.248;2022-07-25T01:23:35;93818.59;;;22.03;80.83
20111;BME280;10216;42.658;23.248;2022-07-25T01:26:02;93811.97;;;22.12;82.36
20111;BME280;10216;42.658;23.248;2022-07-25T01:28:28;93806.28;;;22.15;82.60
20111;BME280;10216;42.658;23.248;2022-07-25T01:30:53;93805.25;;;22.16;80.17
20111;BME280;10216;42.658;23.248;2022-07-25T01:33:20;93808.66;;;22.17;80.31
20111;BME280;10216;42.658;23.248;2022-07-25T01:35:47;93812.63;;;22.19;80.93
20111;BME280;10216;42.658;23.248;2022-07-25T01:38:13;93807.66;;;22.18;80.29
20111;BME280;10216;42.658;23.248;2022-07-25T01:40:39;93809.69;;;22.16;81.18
20111;BME280;10216;42.658;23.248;2022-07-25T01:43:08;93816.75;;;22.15;81.38
20111;BME280;10216;42.658;23.248;2022-07-25T01:45:33;93810.75;;;22.03;78.84
20111;BME280;10216;42.658;23.248;2022-07-25T01:47:59;93807.56;;;22.01;80.90
20111;BME280;10216;42.658;23.248;2022-07-25T01:50:25;93814.97;;;22.04;80.74
20111;BME280;10216;42.658;23.248;2022-07-25T01:52:50;93820.97;;;22.05;80.84
20111;BME280;10216;42.658;23.248;2022-07-25T01:55:16;93821.09;;;21.98;81.19
20111;BME280;10216;42.658;23.248;2022-07-25T01:57:41;93819.94;;;21.94;80.21
20111;BME280;10216;42.658;23.248;2022-07-25T02:00:09;93822.34;;;21.96;80.02
20111;BME280;10216;42.658;23.248;2022-07-25T02:02:35;93821.97;;;21.92;78.42
20111;BME280;10216;42.658;23.248;2022-07-25T02:05:00;93824.94;;;21.84;79.06
20111;BME280;10216;42.658;23.248;2022-07-25T02:07:26;93821.44;;;21.78;79.18
20111;BME280;10216;42.658;23.248;2022-07-25T02:09:51;93824.28;;;21.77;80.51
20111;BME280;10216;42.658;23.248;2022-07-25T02:12:17;93833.72;;;21.78;77.59
20111;BME280;10216;42.658;23.248;2022-07-25T02:14:42;93824.41;;;21.82;78.08
20111;BME280;10216;42.658;23.248;2022-07-25T02:17:08;93822.47;;;21.77;79.40
20111;BME280;10216;42.658;23.248;2022-07-25T02:19:34;93820.06;;;21.76;79.89
20111;BME280;10216;42.658;23.248;2022-07-25T02:22:01;93819.41;;;21.69;79.18
20111;BME280;10216;42.658;23.248;2022-07-25T02:24:26;93823.41;;;21.60;80.05
20111;BME280;10216;42.658;23.248;2022-07-25T02:26:52;93819.97;;;21.48;78.87
20111;BME280;10216;42.658;23.248;2022-07-25T02:29:17;93829.44;;;21.37;79.77
20111;BME280;10216;42.658;23.248;2022-07-25T02:31:42;93830.34;;;21.31;79.73
20111;BME280;10216;42.658;23.248;2022-07-25T02:34:08;93833.38;;;21.28;80.40
20111;BME280;10216;42.658;23.248;2022-07-25T02:36:33;93824.53;;;21.17;80.11
20111;BME280;10216;42.658;23.248;2022-07-25T02:39:01;93833.78;;;21.13;81.87
20111;BME280;10216;42.658;23.248;2022-07-25T02:41:27;93827.88;;;21.06;81.13
20111;BME280;10216;42.658;23.248;2022-07-25T02:43:52;93821.97;;;20.99;81.08
20111;BME280;10216;42.658;23.248;2022-07-25T02:46:18;93819.25;;;20.94;81.59
20111;BME280;10216;42.658;23.248;2022-07-25T02:48:43;93829.31;;;20.90;82.30
20111;BME280;10216;42.658;23.248;2022-07-25T02:51:10;93828.41;;;20.85;81.39
20111;BME280;10216;42.658;23.248;2022-07-25T02:53:35;93828.28;;;20.80;81.25
20111;BME280;10216;42.658;23.248;2022-07-25T02:56:01;93832.13;;;20.77;82.10
20111;BME280;10216;42.658;23.248;2022-07-25T02:58:26;93828.19;;;20.75;81.63
20111;BME280;10216;42.658;23.248;2022-07-25T03:00:51;93828.59;;;20.72;81.06
20111;BME280;10216;42.658;23.248;2022-07-25T03:03:17;93824.50;;;20.64;81.46
20111;BME280;10216;42.658;23.248;2022-07-25T03:05:42;93828.13;;;20.63;81.79
20111;BME280;10216;42.658;23.248;2022-07-25T03:08:08;93829.94;;;20.62;82.58
20111;BME280;10216;42.658;23.248;2022-07-25T03:10:33;93824.69;;;20.51;81.52
20111;BME280;10216;42.658;23.248;2022-07-25T03:13:00;93838.66;;;20.56;82.74
20111;BME280;10216;42.658;23.248;2022-07-25T03:15:26;93835.03;;;20.57;81.43
20111;BME280;10216;42.658;23.248;2022-07-25T03:17:51;93835.84;;;20.58;80.38
20111;BME280;10216;42.658;23.248;2022-07-25T03:20:16;93826.91;;;20.65;79.99
20111;BME280;10216;42.658;23.248;2022-07-25T03:22:43;93821.69;;;20.65;81.11
20111;BME280;10216;42.658;23.248;2022-07-25T03:25:09;93832.53;;;20.62;81.34
20111;BME280;10216;42.658;23.248;2022-07-25T03:27:34;93839.03;;;20.72;80.94
20111;BME280;10216;42.658;23.248;2022-07-25T03:30:00;93840.66;;;20.84;79.36
20111;BME280;10216;42.658;23.248;2022-07-25T03:32:25;93830.53;;;20.76;79.87
20111;BME280;10216;42.658;23.248;2022-07-25T03:34:50;93831.25;;;20.83;80.80
20111;BME280;10216;42.658;23.248;2022-07-25T03:37:18;93826.38;;;20.87;81.00
20111;BME280;10216;42.658;23.248;2022-07-25T03:39:44;93824.66;;;20.81;80.96
20111;BME280;10216;42.658;23.248;2022-07-25T03:42:09;93828.28;;;20.80;79.48
20111;BME280;10216;42.658;23.248;2022-07-25T03:44:35;93831.91;;;20.79;80.60
20111;BME280;10216;42.658;23.248;2022-07-25T03:47:02;93830.78;;;20.75;81.27
20111;BME280;10216;42.658;23.248;2022-07-25T03:49:27;93832.22;;;20.71;83.28
20111;BME280;10216;42.658;23.248;2022-07-25T03:51:53;93833.34;;;20.63;82.69
20111;BME280;10216;42.658;23.248;2022-07-25T03:54:18;93831.53;;;20.63;82.83
20111;BME280;10216;42.658;23.248;2022-07-25T03:56:49;93841.16;;;20.63;81.58
20111;BME280;10216;42.658;23.248;2022-07-25T03:59:17;93846.38;;;20.63;80.37
20111;BME280;10216;42.658;23.248;2022-07-25T04:01:43;93852.09;;;20.72;81.12
20111;BME280;10216;42.658;23.248;2022-07-25T04:04:09;93844.38;;;20.77;77.31
20111;BME280;10216;42.658;23.248;2022-07-25T04:06:35;93842.63;;;20.89;75.45
20111;BME280;10216;42.658;23.248;2022-07-25T04:09:00;93841.16;;;21.04;76.16
20111;BME280;10216;42.658;23.248;2022-07-25T04:11:26;93844.38;;;21.18;74.30
20111;BME280;10216;42.658;23.248;2022-07-25T04:13:53;93838.72;;;21.21;79.52
20111;BME280;10216;42.658;23.248;2022-07-25T04:16:19;93833.28;;;21.23;78.47
20111;BME280;10216;42.658;23.248;2022-07-25T04:18:45;93842.94;;;21.22;78.65
20111;BME280;10216;42.658;23.248;2022-07-25T04:21:10;93836.56;;;21.30;76.63
20111;BME280;10216;42.658;23.248;2022-07-25T04:23:36;93841.25;;;21.39;75.61
20111;BME280;10216;42.658;23.248;2022-07-25T04:26:02;93842.94;;;21.46;74.33
20111;BME280;10216;42.658;23.248;2022-07-25T04:28:27;93836.47;;;21.60;71.35
20111;BME280;10216;42.658;23.248;2022-07-25T04:30:53;93838.28;;;21.71;69.47
20111;BME280;10216;42.658;23.248;2022-07-25T04:33:19;93841.78;;;21.88;67.97
20111;BME280;10216;42.658;23.248;2022-07-25T04:35:45;93839.41;;;21.98;68.10
20111;BME280;10216;42.658;23.248;2022-07-25T04:38:12;93836.09;;;22.03;68.66
20111;BME280;10216;42.658;23.248;2022-07-25T04:40:38;93834.38;;;22.08;67.54
20111;BME280;10216;42.658;23.248;2022-07-25T04:43:04;93834.47;;;22.13;67.36
20111;BME280;10216;42.658;23.248;2022-07-25T04:45:30;93837.31;;;22.24;67.67
20111;BME280;10216;42.658;23.248;2022-07-25T04:47:55;93835.00;;;22.27;68.38
20111;BME280;10216;42.658;23.248;2022-07-25T04:50:21;93841.69;;;22.35;68.21
20111;BME280;10216;42.658;23.248;2022-07-25T04:52:46;93841.81;;;22.40;67.75
20111;BME280;10216;42.658;23.248;2022-07-25T04:55:12;93840.31;;;22.44;69.59
20111;BME280;10216;42.658;23.248;2022-07-25T04:57:38;93842.22;;;22.48;67.84
20111;BME280;10216;42.658;23.248;2022-07-25T05:00:04;93846.19;;;22.51;68.49
20111;BME280;10216;42.658;23.248;2022-07-25T05:02:31;93848.09;;;22.55;68.11
20111;BME280;10216;42.658;23.248;2022-07-25T05:04:57;93844.69;;;22.55;70.53
20111;BME280;10216;42.658;23.248;2022-07-25T05:07:22;93844.44;;;22.56;67.42
20111;BME280;10216;42.658;23.248;2022-07-25T05:09:48;93846.56;;;22.71;66.89
20111;BME280;10216;42.658;23.248;2022-07-25T05:12:13;93843.28;;;22.76;67.66
20111;BME280;10216;42.658;23.248;2022-07-25T05:14:38;93844.16;;;22.81;69.71
20111;BME280;10216;42.658;23.248;2022-07-25T05:17:04;93852.59;;;22.83;68.80
20111;BME280;10216;42.658;23.248;2022-07-25T05:19:30;93841.16;;;22.89;67.43
20111;BME280;10216;42.658;23.248;2022-07-25T05:21:55;93849.66;;;22.96;66.88
20111;BME280;10216;42.658;23.248;2022-07-25T05:24:21;93848.16;;;23.01;69.69
20111;BME280;10216;42.658;23.248;2022-07-25T05:26:47;93854.97;;;23.02;68.93
20111;BME280;10216;42.658;23.248;2022-07-25T05:29:13;93852.19;;;23.08;68.48
20111;BME280;10216;42.658;23.248;2022-07-25T05:31:38;93851.25;;;23.14;68.01
20111;BME280;10216;42.658;23.248;2022-07-25T05:34:03;93852.91;;;23.20;66.83
20111;BME280;10216;42.658;23.248;2022-07-25T05:36:29;93838.88;;;23.26;66.30
20111;BME280;10216;42.658;23.248;2022-07-25T05:38:54;93845.56;;;23.34;65.60
20111;BME280;10216;42.658;23.248;2022-07-25T05:41:20;93850.88;;;23.39;65.44
20111;BME280;10216;42.658;23.248;2022-07-25T05:43:45;93848.88;;;23.46;66.16
20111;BME280;10216;42.658;23.248;2022-07-25T05:46:13;93846.91;;;23.53;66.71
20111;BME280;10216;42.658;23.248;2022-07-25T05:48:42;93850.97;;;23.61;65.13
20111;BME280;10216;42.658;23.248;2022-07-25T05:51:07;93855.25;;;23.67;63.77
20111;BME280;10216;42.658;23.248;2022-07-25T05:53:33;93849.44;;;23.65;64.80
20111;BME280;10216;42.658;23.248;2022-07-25T05:56:01;93838.78;;;23.71;64.10
20111;BME280;10216;42.658;23.248;2022-07-25T05:58:26;93838.88;;;23.77;64.32
20111;BME280;10216;42.658;23.248;2022-07-25T06:00:52;93840.03;;;23.86;63.67
20111;BME280;10216;42.658;23.248;2022-07-25T06:03:18;93844.38;;;23.97;63.62
20111;BME280;10216;42.658;23.248;2022-07-25T06:05:44;93840.31;;;24.06;62.41
20111;BME280;10216;42.658;23.248;2022-07-25T06:08:11;93833.94;;;24.02;64.24
20111;BME280;10216;42.658;23.248;2022-07-25T06:10:37;93840.91;;;24.13;63.18
20111;BME280;10216;42.658;23.248;2022-07-25T06:13:03;93844.94;;;24.21;61.91
20111;BME280;10216;42.658;23.248;2022-07-25T06:15:28;93837.44;;;24.29;61.46
20111;BME280;10216;42.658;23.248;2022-07-25T06:17:54;93835.44;;;24.36;62.10
20111;BME280;10216;42.658;23.248;2022-07-25T06:20:19;93840.56;;;24.48;60.97
20111;BME280;10216;42.658;23.248;2022-07-25T06:22:45;93838.59;;;24.60;62.95
20111;BME280;10216;42.658;23.248;2022-07-25T06:25:10;93839.19;;;24.67;60.99
20111;BME280;10216;42.658;23.248;2022-07-25T06:27:37;93840.88;;;24.78;60.21
20111;BME280;10216;42.658;23.248;2022-07-25T06:30:04;93840.75;;;24.90;61.44
20111;BME280;10216;42.658;23.248;2022-07-25T06:32:30;93839.53;;;24.98;60.22
20111;BME280;10216;42.658;23.248;2022-07-25T06:34:55;93835.09;;;25.03;59.74
20111;BME280;10216;42.658;23.248;2022-07-25T06:37:21;93830.44;;;25.10;59.49
20111;BME280;10216;42.658;23.248;2022-07-25T06:39:46;93827.03;;;25.15;58.71
20111;BME280;10216;42.658;23.248;2022-07-25T06:42:12;93834.31;;;25.35;58.71
20111;BME280;10216;42.658;23.248;2022-07-25T06:44:37;93823.84;;;25.45;58.72
20111;BME280;10216;42.658;23.248;2022-07-25T06:47:03;93832.38;;;25.57;58.12
20111;BME280;10216;42.658;23.248;2022-07-25T06:49:29;93835.84;;;25.62;57.07
20111;BME280;10216;42.658;23.248;2022-07-25T06:51:55;93837.78;;;25.77;55.82
20111;BME280;10216;42.658;23.248;2022-07-25T06:54:20;93831.75;;;25.87;55.67
20111;BME280;10216;42.658;23.248;2022-07-25T06:56:45;93835.28;;;26.02;56.37
20111;BME280;10216;42.658;23.248;2022-07-25T06:59:11;93830.38;;;26.21;55.38
20111;BME280;10216;42.658;23.248;2022-07-25T07:01:36;93825.41;;;26.30;53.33
20111;BME280;10216;42.658;23.248;2022-07-25T07:04:02;93820.50;;;26.43;53.95
20111;BME280;10216;42.658;23.248;2022-07-25T07:06:28;93831.28;;;26.47;54.15
20111;BME280;10216;42.658;23.248;2022-07-25T07:08:53;93825.50;;;26.55;53.28
20111;BME280;10216;42.658;23.248;2022-07-25T07:11:19;93824.47;;;26.66;53.63
20111;BME280;10216;42.658;23.248;2022-07-25T07:13:44;93830.03;;;26.75;52.62
20111;BME280;10216;42.658;23.248;2022-07-25T07:16:10;93827.94;;;26.87;51.90
20111;BME280;10216;42.658;23.248;2022-07-25T07:18:36;93826.44;;;27.01;51.23
20111;BME280;10216;42.658;23.248;2022-07-25T07:21:02;93824.56;;;27.17;51.52
20111;BME280;10216;42.658;23.248;2022-07-25T07:23:28;93826.72;;;27.30;51.67
20111;BME280;10216;42.658;23.248;2022-07-25T07:25:54;93827.22;;;27.42;50.29
20111;BME280;10216;42.658;23.248;2022-07-25T07:28:19;93826.69;;;27.45;49.57
20111;BME280;10216;42.658;23.248;2022-07-25T07:30:44;93828.56;;;27.55;49.67
20111;BME280;10216;42.658;23.248;2022-07-25T07:33:10;93826.16;;;27.69;48.99
20111;BME280;10216;42.658;23.248;2022-07-25T07:35:35;93823.22;;;27.85;48.26
20111;BME280;10216;42.658;23.248;2022-07-25T07:38:01;93827.19;;;27.88;48.36
20111;BME280;10216;42.658;23.248;2022-07-25T07:40:26;93831.63;;;27.97;48.24
20111;BME280;10216;42.658;23.248;2022-07-25T07:42:52;93825.56;;;28.02;48.23
20111;BME280;10216;42.658;23.248;2022-07-25T07:45:23;93820.31;;;27.92;48.09
20111;BME280;10216;42.658;23.248;2022-07-25T07:47:51;93819.19;;;28.13;47.84
20111;BME280;10216;42.658;23.248;2022-07-25T07:50:19;93821.53;;;28.25;48.47
20111;BME280;10216;42.658;23.248;2022-07-25T07:52:45;93824.34;;;28.49;47.95
20111;BME280;10216;42.658;23.248;2022-07-25T07:55:13;93825.09;;;28.59;46.97
20111;BME280;10216;42.658;23.248;2022-07-25T07:57:58;93824.75;;;28.81;46.50
20111;BME280;10216;42.658;23.248;2022-07-25T08:00:27;93812.56;;;28.85;44.34
20111;BME280;10216;42.658;23.248;2022-07-25T08:02:55;93814.16;;;29.20;45.92
20111;BME280;10216;42.658;23.248;2022-07-25T08:05:26;93814.72;;;29.51;44.46
20111;BME280;10216;42.658;23.248;2022-07-25T08:07:52;93811.94;;;29.66;44.70
20111;BME280;10216;42.658;23.248;2022-07-25T08:10:20;93813.28;;;29.64;44.36
20111;BME280;10216;42.658;23.248;2022-07-25T08:12:46;93810.09;;;29.96;44.95
20111;BME280;10216;42.658;23.248;2022-07-25T08:15:12;93825.75;;;30.16;43.94
20111;BME280;10216;42.658;23.248;2022-07-25T08:17:37;93825.06;;;30.29;43.66
20111;BME280;10216;42.658;23.248;2022-07-25T08:20:03;93814.34;;;30.39;43.22
20111;BME280;10216;42.658;23.248;2022-07-25T08:22:40;93820.66;;;30.67;41.82
20111;BME280;10216;42.658;23.248;2022-07-25T08:25:07;93819.19;;;30.56;41.17
20111;BME280;10216;42.658;23.248;2022-07-25T08:27:36;93827.63;;;30.82;42.25
20111;BME280;10216;42.658;23.248;2022-07-25T08:30:03;93822.53;;;31.04;40.33
20111;BME280;10216;42.658;23.248;2022-07-25T08:32:29;93823.94;;;31.34;39.76
20111;BME280;10216;42.658;23.248;2022-07-25T08:34:55;93817.44;;;31.91;40.34
20111;BME280;10216;42.658;23.248;2022-07-25T08:37:21;93824.66;;;32.32;39.59
20111;BME280;10216;42.658;23.248;2022-07-25T08:39:47;93830.16;;;32.63;38.19
20111;BME280;10216;42.658;23.248;2022-07-25T08:42:12;93830.84;;;32.41;38.08
20111;BME280;10216;42.658;23.248;2022-07-25T08:44:41;93824.31;;;32.06;39.01
20111;BME280;10216;42.658;23.248;2022-07-25T08:47:08;93819.50;;;32.63;39.07
20111;BME280;10216;42.658;23.248;2022-07-25T08:49:34;93822.72;;;33.23;36.86
20111;BME280;10216;42.658;23.248;2022-07-25T08:52:01;93820.06;;;33.45;37.38
20111;BME280;10216;42.658;23.248;2022-07-25T08:54:27;93818.75;;;34.18;36.17
20111;BME280;10216;42.658;23.248;2022-07-25T08:56:53;93820.28;;;34.10;35.50
20111;BME280;10216;42.658;23.248;2022-07-25T08:59:18;93811.88;;;32.97;36.69
20111;BME280;10216;42.658;23.248;2022-07-25T09:01:43;93814.16;;;31.80;38.35
20111;BME280;10216;42.658;23.248;2022-07-25T09:04:09;93808.34;;;32.06;38.85
20111;BME280;10216;42.658;23.248;2022-07-25T09:06:34;93808.72;;;33.17;36.83
20111;BME280;10216;42.658;23.248;2022-07-25T09:09:00;93810.22;;;34.38;35.42
20111;BME280;10216;42.658;23.248;2022-07-25T09:11:34;93813.09;;;34.68;33.96
20111;BME280;10216;42.658;23.248;2022-07-25T09:14:06;93812.25;;;35.07;34.01
20111;BME280;10216;42.658;23.248;2022-07-25T09:16:34;93813.47;;;34.75;33.77
20111;BME280;10216;42.658;23.248;2022-07-25T09:19:19;93801.56;;;35.07;33.35
20111;BME280;10216;42.658;23.248;2022-07-25T09:22:03;93810.16;;;35.81;31.62
20111;BME280;10216;42.658;23.248;2022-07-25T09:24:30;93819.22;;;36.44;32.02
20111;BME280;10216;42.658;23.248;2022-07-25T09:26:59;93806.09;;;37.31;31.26
20111;BME280;10216;42.658;23.248;2022-07-25T09:29:28;93807.06;;;37.92;30.82
20111;BME280;10216;42.658;23.248;2022-07-25T09:31:55;93799.94;;;37.96;28.86
20111;BME280;10216;42.658;23.248;2022-07-25T09:34:35;93794.16;;;38.31;29.72
20111;BME280;10216;42.658;23.248;2022-07-25T09:37:01;93793.91;;;38.48;30.28
20111;BME280;10216;42.658;23.248;2022-07-25T09:39:44;93799.22;;;38.32;30.48
20111;BME280;10216;42.658;23.248;2022-07-25T09:42:26;93804.22;;;38.70;30.18
20111;BME280;10216;42.658;23.248;2022-07-25T09:45:05;93806.09;;;39.34;28.43
20111;BME280;10216;42.658;23.248;2022-07-25T09:47:33;93801.63;;;39.66;29.39
20111;BME280;10216;42.658;23.248;2022-07-25T09:49:59;93806.19;;;39.93;28.59
20111;BME280;10216;42.658;23.248;2022-07-25T09:52:24;93785.81;;;39.92;28.75
20111;BME280;10216;42.658;23.248;2022-07-25T09:54:50;93790.75;;;40.06;28.65
20111;BME280;10216;42.658;23.248;2022-07-25T09:57:15;93796.91;;;40.22;28.47
20111;BME280;10216;42.658;23.248;2022-07-25T09:59:41;93795.69;;;40.82;27.60
20111;BME280;10216;42.658;23.248;2022-07-25T10:04:50;93795.66;;;42.66;26.14
20111;BME280;10216;42.658;23.248;2022-07-25T10:07:21;93795.97;;;42.35;27.15
20111;BME280;10216;42.658;23.248;2022-07-25T10:09:50;93785.06;;;43.10;25.84
20111;BME280;10216;42.658;23.248;2022-07-25T10:12:21;93782.56;;;42.68;26.20
20111;BME280;10216;42.658;23.248;2022-07-25T10:15:08;93781.38;;;40.00;28.14
20111;BME280;10216;42.658;23.248;2022-07-25T10:17:35;93772.81;;;37.65;30.14
20111;BME280;10216;42.658;23.248;2022-07-25T10:20:01;93774.00;;;36.22;31.95
20111;BME280;10216;42.658;23.248;2022-07-25T10:22:41;93764.63;;;35.17;32.84
20111;BME280;10216;42.658;23.248;2022-07-25T10:25:15;93752.56;;;34.94;31.52
20111;BME280;10216;42.658;23.248;2022-07-25T10:27:53;93758.56;;;36.98;29.18
20111;BME280;10216;42.658;23.248;2022-07-25T10:30:27;93763.47;;;39.32;28.29
20111;BME280;10216;42.658;23.248;2022-07-25T10:32:58;93770.97;;;40.14;27.49
20111;BME280;10216;42.658;23.248;2022-07-25T10:35:28;93763.31;;;38.37;29.31
20111;BME280;10216;42.658;23.248;2022-07-25T10:37:57;93758.56;;;36.78;31.15
20111;BME280;10216;42.658;23.248;2022-07-25T10:40:35;93755.28;;;36.51;32.08
20111;BME280;10216;42.658;23.248;2022-07-25T10:43:12;93745.06;;;35.77;32.11
20111;BME280;10216;42.658;23.248;2022-07-25T10:45:43;93741.72;;;34.82;33.31
20111;BME280;10216;42.658;23.248;2022-07-25T10:48:21;93741.38;;;34.01;35.04
20111;BME280;10216;42.658;23.248;2022-07-25T10:56:11;93745.19;;;38.58;30.11
20111;BME280;10216;42.658;23.248;2022-07-25T11:01:08;93754.63;;;41.66;27.48
20111;BME280;10216;42.658;23.248;2022-07-25T11:03:34;93745.66;;;39.56;26.85
20111;BME280;10216;42.658;23.248;2022-07-25T11:06:00;93745.06;;;36.74;29.99
20111;BME280;10216;42.658;23.248;2022-07-25T11:08:32;93736.69;;;38.07;28.35
20111;BME280;10216;42.658;23.248;2022-07-25T11:10:58;93743.41;;;40.68;27.78
20111;BME280;10216;42.658;23.248;2022-07-25T11:13:24;93736.34;;;42.47;25.84
20111;BME280;10216;42.658;23.248;2022-07-25T11:15:50;93749.22;;;43.47;25.00
20111;BME280;10216;42.658;23.248;2022-07-25T11:18:15;93736.88;;;43.49;24.70
20111;BME280;10216;42.658;23.248;2022-07-25T11:20:42;93743.16;;;44.42;23.57
20111;BME280;10216;42.658;23.248;2022-07-25T11:23:08;93747.16;;;45.34;22.71
20111;BME280;10216;42.658;23.248;2022-07-25T11:25:33;93738.41;;;44.86;22.60
20111;BME280;10216;42.658;23.248;2022-07-25T11:28:00;93734.91;;;44.82;23.51
20111;BME280;10216;42.658;23.248;2022-07-25T11:30:27;93730.41;;;43.24;23.23
20111;BME280;10216;42.658;23.248;2022-07-25T11:32:56;93733.09;;;40.23;25.69
20111;BME280;10216;42.658;23.248;2022-07-25T11:35:26;93713.53;;;38.03;27.57
20111;BME280;10216;42.658;23.248;2022-07-25T11:37:52;93713.81;;;36.57;29.62
20111;BME280;10216;42.658;23.248;2022-07-25T11:40:19;93698.47;;;35.49;30.98
20111;BME280;10216;42.658;23.248;2022-07-25T11:42:53;93706.81;;;35.39;31.20
20111;BME280;10216;42.658;23.248;2022-07-25T11:47:49;93696.25;;;39.32;29.26
20111;BME280;10216;42.658;23.248;2022-07-25T11:50:29;93696.41;;;42.11;25.04
20111;BME280;10216;42.658;23.248;2022-07-25T11:53:02;93709.97;;;42.97;24.04
20111;BME280;10216;42.658;23.248;2022-07-25T11:55:30;93710.41;;;42.99;23.29
20111;BME280;10216;42.658;23.248;2022-07-25T11:57:58;93706.88;;;40.35;25.28
20111;BME280;10216;42.658;23.248;2022-07-25T12:00:25;93696.88;;;38.46;28.57
20111;BME280;10216;42.658;23.248;2022-07-25T12:02:50;93696.69;;;37.45;29.76
20111;BME280;10216;42.658;23.248;2022-07-25T12:05:18;93688.06;;;35.56;31.93
20111;BME280;10216;42.658;23.248;2022-07-25T12:07:49;93678.59;;;35.03;32.97
20111;BME280;10216;42.658;23.248;2022-07-25T12:10:21;93680.19;;;34.70;33.34
20111;BME280;10216;42.658;23.248;2022-07-25T12:12:52;93682.38;;;34.33;33.90
20111;BME280;10216;42.658;23.248;2022-07-25T12:15:26;93667.72;;;34.05;34.57
20111;BME280;10216;42.658;23.248;2022-07-25T12:17:53;93671.81;;;34.20;34.60
20111;BME280;10216;42.658;23.248;2022-07-25T12:20:24;93672.25;;;35.34;34.67
20111;BME280;10216;42.658;23.248;2022-07-25T12:22:51;93671.66;;;36.96;35.08
20111;BME280;10216;42.658;23.248;2022-07-25T12:25:17;93665.69;;;37.92;28.84
20111;BME280;10216;42.658;23.248;2022-07-25T12:27:44;93661.34;;;37.19;30.37
20111;BME280;10216;42.658;23.248;2022-07-25T12:30:11;93663.09;;;36.40;31.53
20111;BME280;10216;42.658;23.248;2022-07-25T12:32:36;93654.94;;;36.57;30.25
20111;BME280;10216;42.658;23.248;2022-07-25T12:35:04;93647.63;;;37.32;31.79
20111;BME280;10216;42.658;23.248;2022-07-25T12:37:29;93657.41;;;36.62;30.43
20111;BME280;10216;42.658;23.248;2022-07-25T12:39:55;93653.13;;;35.61;32.97
20111;BME280;10216;42.658;23.248;2022-07-25T12:42:21;93650.34;;;34.59;33.51
20111;BME280;10216;42.658;23.248;2022-07-25T12:44:46;93650.03;;;33.69;35.00
20111;BME280;10216;42.658;23.248;2022-07-25T12:47:11;93646.97;;;33.45;35.63
20111;BME280;10216;42.658;23.248;2022-07-25T12:49:37;93637.34;;;34.58;35.86
20111;BME280;10216;42.658;23.248;2022-07-25T12:52:02;93646.44;;;34.82;34.94
20111;BME280;10216;42.658;23.248;2022-07-25T12:54:28;93644.97;;;34.16;33.32
20111;BME280;10216;42.658;23.248;2022-07-25T12:56:54;93629.44;;;33.53;35.05
20111;BME280;10216;42.658;23.248;2022-07-25T12:59:20;93633.09;;;32.95;37.05
20111;BME280;10216;42.658;23.248;2022-07-25T13:01:45;93640.84;;;35.31;36.70
20111;BME280;10216;42.658;23.248;2022-07-25T13:04:12;93638.28;;;38.36;30.96